createdAt,value
2018-03-26T00:01:04.481Z,29.98
2018-03-26T00:03:35.565Z,28.90
2018-03-26T00:08:58.263Z,29.00
2018-03-26T00:11:49.737Z,32.33
2018-03-26T00:14:17.801Z,31.30
2018-03-26T00:17:03.652Z,30.80
2018-03-26T00:19:39.721Z,27.92
2018-03-26T00:22:25.181Z,34.25
2018-03-26T00:24:57.413Z,34.13
2018-03-26T00:27:27.444Z,37.40
2018-03-26T00:29:57.241Z,34.17
2018-03-26T00:32:46.657Z,29.10
2018-03-26T00:35:16.629Z,35.38
2018-03-26T00:37:49.032Z,38.90
2018-03-26T00:40:23.797Z,31.98
2018-03-26T00:42:54.768Z,40.20
2018-03-26T00:45:26.564Z,30.88
2018-03-26T00:47:55.609Z,34.20
2018-03-26T00:50:31.646Z,31.70
2018-03-26T00:53:03.733Z,32.60
2018-03-26T00:55:35.481Z,31.50
2018-03-26T00:58:16.737Z,31.05
2018-03-26T01:00:46.505Z,40.72
2018-03-26T01:06:22.716Z,30.65
2018-03-26T01:09:09.505Z,30.02
2018-03-26T01:11:41.832Z,34.50
2018-03-26T01:14:09.865Z,35.63
2018-03-26T01:16:38.909Z,34.78
2018-03-26T01:19:06.941Z,35.85
2018-03-26T01:21:47.193Z,29.87
2018-03-26T01:24:25.845Z,34.60
2018-03-26T01:26:55.889Z,37.38
2018-03-26T01:29:24.677Z,37.42
2018-03-26T01:31:55.483Z,37.55
2018-03-26T01:34:36.517Z,40.33
2018-03-26T01:37:08.837Z,39.85
2018-03-26T01:42:32.625Z,35.95
2018-03-26T01:45:12.325Z,31.85
2018-03-26T01:47:45.589Z,38.72
2018-03-26T01:50:22.944Z,33.42
2018-03-26T01:53:16.891Z,32.85
2018-03-26T01:55:50.457Z,33.33
2018-03-26T01:58:24.033Z,37.35
2018-03-26T02:00:55.199Z,43.67
2018-03-26T02:03:39.056Z,36.25
2018-03-26T02:06:09.025Z,38.35
2018-03-26T02:11:37.825Z,33.45
2018-03-26T02:14:13.685Z,36.88
2018-03-26T02:16:42.700Z,39.35
2018-03-26T02:19:18.413Z,38.45
2018-03-26T02:21:47.412Z,35.35
2018-03-26T02:24:32.741Z,41.47
2018-03-26T02:27:08.568Z,34.10
2018-03-26T02:29:49.392Z,41.08
2018-03-26T02:32:20.649Z,36.88
2018-03-26T02:35:07.818Z,40.08
2018-03-26T02:37:49.398Z,35.08
2018-03-26T02:40:46.484Z,33.80
2018-03-26T02:43:31.857Z,33.92
2018-03-26T02:49:17.062Z,35.05
2018-03-26T02:52:06.509Z,36.58
2018-03-26T02:54:59.697Z,33.75
2018-03-26T02:57:40.261Z,40.97
2018-03-26T03:00:18.996Z,37.25
2018-03-26T03:02:57.952Z,37.83
2018-03-26T03:08:29.452Z,46.67
2018-03-26T03:10:59.257Z,39.90
2018-03-26T03:13:29.216Z,35.80
2018-03-26T03:16:09.813Z,36.20
2018-03-26T03:18:43.796Z,36.05
2018-03-26T03:24:18.577Z,33.58
2018-03-26T03:26:49.708Z,32.45
2018-03-26T03:29:41.456Z,36.50
2018-03-26T03:32:27.381Z,38.70
2018-03-26T03:35:10.164Z,39.15
2018-03-26T03:40:32.608Z,36.30
2018-03-26T03:43:08.920Z,32.05
2018-03-26T03:45:46.780Z,35.60
2018-03-26T03:48:36.180Z,39.50
2018-03-26T03:51:16.632Z,38.15
2018-03-26T03:53:50.668Z,34.63
2018-03-26T03:56:20.684Z,36.65
2018-03-26T03:59:06.865Z,44.30
2018-03-26T04:01:35.861Z,37.50
2018-03-26T04:04:08.668Z,42.10
2018-03-26T04:06:52.266Z,39.15
2018-03-26T04:09:29.752Z,29.80
2018-03-26T04:12:01.741Z,36.22
2018-03-26T04:14:33.512Z,30.65
2018-03-26T04:17:08.804Z,43.97
2018-03-26T04:22:35.480Z,38.75
2018-03-26T04:25:09.903Z,37.55
2018-03-26T04:27:41.072Z,36.70
2018-03-26T04:30:27.208Z,38.00
2018-03-26T04:32:56.292Z,40.20
2018-03-26T04:35:46.100Z,38.53
2018-03-26T04:41:33.232Z,33.67
2018-03-26T04:44:01.304Z,37.33
2018-03-26T04:46:39.688Z,33.75
2018-03-26T04:49:18.660Z,37.97
2018-03-26T04:51:47.699Z,40.10
2018-03-26T04:57:33.976Z,45.38
2018-03-26T05:00:05.812Z,34.08
2018-03-26T05:05:28.292Z,35.65
2018-03-26T05:14:06.307Z,37.33
2018-03-26T05:19:42.164Z,36.33
2018-03-26T05:22:24.688Z,32.85
2018-03-26T05:25:12.836Z,32.45
2018-03-26T05:27:49.118Z,39.45
2018-03-26T05:30:28.744Z,31.08
2018-03-26T05:33:01.376Z,36.92
2018-03-26T05:35:31.176Z,35.67
2018-03-26T05:38:24.579Z,36.42
2018-03-26T05:41:07.791Z,34.95
2018-03-26T05:43:45.728Z,36.63
2018-03-26T05:46:21.366Z,38.15
2018-03-26T05:49:06.840Z,37.63
2018-03-26T05:51:59.079Z,33.30
2018-03-26T05:54:27.147Z,38.75
2018-03-26T05:57:02.087Z,41.72
2018-03-26T05:59:45.695Z,42.22
2018-03-26T06:02:14.651Z,41.20
2018-03-26T06:04:43.655Z,33.35
2018-03-26T06:07:17.807Z,43.28
2018-03-26T06:09:46.027Z,33.40
2018-03-26T06:12:15.023Z,40.90
2018-03-26T06:14:48.219Z,45.28
2018-03-26T06:17:18.590Z,46.17
2018-03-26T06:19:57.543Z,45.72
2018-03-26T06:22:25.615Z,42.38
2018-03-26T06:24:55.589Z,39.20
2018-03-26T06:27:24.424Z,36.30
2018-03-26T06:30:02.044Z,36.13
2018-03-26T06:32:32.187Z,39.00
2018-03-26T06:35:00.255Z,39.80
2018-03-26T06:37:35.863Z,39.72
2018-03-26T06:40:03.939Z,42.40
2018-03-26T06:42:33.011Z,42.58
2018-03-26T06:45:01.021Z,48.72
2018-03-26T06:47:30.836Z,39.03
2018-03-26T06:50:00.811Z,45.70
2018-03-26T06:52:32.559Z,43.80
2018-03-26T06:55:10.959Z,46.88
2018-03-26T06:57:40.890Z,40.60
2018-03-26T07:00:09.954Z,43.05
2018-03-26T07:02:40.147Z,43.90
2018-03-26T07:05:12.406Z,52.60
2018-03-26T07:07:40.487Z,49.17
2018-03-26T07:10:09.245Z,44.70
2018-03-26T07:12:40.587Z,43.30
2018-03-26T07:15:09.573Z,41.75
2018-03-26T07:17:37.599Z,50.05
2018-03-26T07:20:07.559Z,45.95
2018-03-26T07:22:35.571Z,46.78
2018-03-26T07:25:06.266Z,55.75
2018-03-26T07:27:36.262Z,49.38
2018-03-26T07:30:06.299Z,57.67
2018-03-26T07:32:34.300Z,53.78
2018-03-26T07:35:03.086Z,51.55
2018-03-26T07:37:33.886Z,47.83
2018-03-26T07:40:01.895Z,46.80
2018-03-26T07:42:31.655Z,50.15
2018-03-26T07:45:01.672Z,50.72
2018-03-26T07:47:29.703Z,49.40
2018-03-26T07:49:57.707Z,53.90
2018-03-26T07:52:32.947Z,47.78
2018-03-26T07:55:02.875Z,43.92
2018-03-26T07:57:31.774Z,54.08
2018-03-26T08:00:03.278Z,50.88
2018-03-26T08:02:33.221Z,55.72
2018-03-26T08:05:09.147Z,56.53
2018-03-26T08:07:37.755Z,57.25
2018-03-26T08:10:07.801Z,52.55
2018-03-26T08:12:56.587Z,52.28
2018-03-26T08:15:43.610Z,54.42
2018-03-26T08:18:13.706Z,47.55
2018-03-26T08:20:49.318Z,57.30
2018-03-26T08:23:25.993Z,50.72
2018-03-26T08:25:59.830Z,52.75
2018-03-26T08:28:33.694Z,51.88
2018-03-26T08:31:15.011Z,51.00
2018-03-26T08:33:43.774Z,54.40
2018-03-26T08:36:12.758Z,47.90
2018-03-26T08:38:47.642Z,59.55
2018-03-26T08:41:17.578Z,53.67
2018-03-26T08:43:45.574Z,50.67
2018-03-26T08:46:17.115Z,49.38
2018-03-26T08:48:46.110Z,51.03
2018-03-26T08:51:16.838Z,49.90
2018-03-26T08:53:44.851Z,45.95
2018-03-26T08:56:14.659Z,53.85
2018-03-26T08:58:43.618Z,47.40
2018-03-26T09:01:18.522Z,48.17
2018-03-26T09:03:48.438Z,49.35
2018-03-26T09:06:21.146Z,49.17
2018-03-26T09:11:27.790Z,50.55
2018-03-26T09:13:57.754Z,51.55
2018-03-26T09:16:25.771Z,47.45
2018-03-26T09:18:53.789Z,51.60
2018-03-26T09:21:23.802Z,43.40
2018-03-26T09:23:53.878Z,50.67
2018-03-26T09:26:28.610Z,43.22
2018-03-26T09:28:57.542Z,42.38
2018-03-26T09:31:32.046Z,49.58
2018-03-26T09:34:00.088Z,43.80
2018-03-26T09:36:31.670Z,46.25
2018-03-26T09:39:14.654Z,50.47
2018-03-26T09:41:43.610Z,46.65
2018-03-26T09:44:12.078Z,53.35
2018-03-26T09:46:46.786Z,46.58
2018-03-26T09:49:38.706Z,49.38
2018-03-26T09:52:10.314Z,49.85
2018-03-26T09:54:40.147Z,46.13
2018-03-26T09:57:11.774Z,47.92
2018-03-26T09:59:43.604Z,50.30
2018-03-26T10:02:16.378Z,46.17
2018-03-26T10:04:45.447Z,44.92
2018-03-26T10:07:15.282Z,47.30
2018-03-26T10:09:49.996Z,43.35
2018-03-26T10:12:25.734Z,47.38
2018-03-26T10:14:58.799Z,49.15
2018-03-26T10:17:37.267Z,49.40
2018-03-26T10:20:09.030Z,42.42
2018-03-26T10:22:46.706Z,47.97
2018-03-26T10:25:14.718Z,42.00
2018-03-26T10:27:42.723Z,45.38
2018-03-26T10:30:10.749Z,41.50
2018-03-26T10:32:39.710Z,51.47
2018-03-26T10:35:07.726Z,48.65
2018-03-26T10:37:37.510Z,43.30
2018-03-26T10:40:10.622Z,47.20
2018-03-26T10:42:40.397Z,43.08
2018-03-26T10:45:09.399Z,50.42
2018-03-26T10:47:41.875Z,45.65
2018-03-26T10:50:11.798Z,48.90
2018-03-26T10:52:39.796Z,44.30
2018-03-26T10:55:10.489Z,43.38
2018-03-26T10:57:45.485Z,45.20
2018-03-26T11:00:16.757Z,49.60
2018-03-26T11:02:46.669Z,45.10
2018-03-26T11:05:18.229Z,46.72
2018-03-26T11:07:47.241Z,44.28
2018-03-26T11:10:16.222Z,41.47
2018-03-26T11:12:44.364Z,42.53
2018-03-26T11:15:14.169Z,44.20
2018-03-26T11:17:46.185Z,48.92
2018-03-26T11:20:15.141Z,44.35
2018-03-26T11:22:43.153Z,43.95
2018-03-26T11:25:11.157Z,43.63
2018-03-26T11:27:43.161Z,46.40
2018-03-26T11:30:23.421Z,50.10
2018-03-26T11:32:51.433Z,41.15
2018-03-26T11:35:20.386Z,47.80
2018-03-26T11:37:48.397Z,42.55
2018-03-26T11:40:27.369Z,47.83
2018-03-26T11:42:56.437Z,40.60
2018-03-26T11:45:25.381Z,43.90
2018-03-26T11:47:56.124Z,49.40
2018-03-26T11:50:24.093Z,42.67
2018-03-26T11:52:52.897Z,46.10
2018-03-26T11:55:20.905Z,40.22
2018-03-26T11:58:05.745Z,43.28
2018-03-26T12:00:38.954Z,39.80
2018-03-26T12:03:09.022Z,43.00
2018-03-26T12:05:37.788Z,38.45
2018-03-26T12:08:07.856Z,42.80
2018-03-26T12:10:39.765Z,53.92
2018-03-26T12:13:11.625Z,39.22
2018-03-26T12:15:41.745Z,39.45
2018-03-26T12:18:09.789Z,40.85
2018-03-26T12:20:49.968Z,45.03
2018-03-26T12:23:29.729Z,40.45
2018-03-26T12:26:06.552Z,37.70
2018-03-26T12:28:46.445Z,38.90
2018-03-26T12:31:16.225Z,38.65
2018-03-26T12:33:57.276Z,39.97
2018-03-26T12:36:32.001Z,41.15
2018-03-26T12:39:06.833Z,41.37
2018-03-26T12:41:35.854Z,41.67
2018-03-26T12:44:07.509Z,38.65
2018-03-26T12:46:44.348Z,44.25
2018-03-26T12:49:13.129Z,46.35
2018-03-26T12:51:54.961Z,42.17
2018-03-26T12:54:27.345Z,39.83
2018-03-26T12:57:12.465Z,38.60
2018-03-26T12:59:42.437Z,47.53
2018-03-26T13:02:28.981Z,42.58
2018-03-26T13:04:56.988Z,44.25
2018-03-26T13:07:26.923Z,41.42
2018-03-26T13:09:55.896Z,55.72
2018-03-26T13:12:28.269Z,43.20
2018-03-26T13:14:57.308Z,44.45
2018-03-26T13:17:29.228Z,49.78
2018-03-26T13:19:57.266Z,79.65
2018-03-26T13:22:26.197Z,47.95
2018-03-26T13:24:57.429Z,43.15
2018-03-26T13:27:27.445Z,44.25
2018-03-26T13:29:55.473Z,48.22
2018-03-26T13:32:27.684Z,41.90
2018-03-26T13:35:00.717Z,43.60
2018-03-26T13:37:29.501Z,42.67
2018-03-26T13:40:02.545Z,45.95
2018-03-26T13:42:32.578Z,44.90
2018-03-26T13:45:08.512Z,44.42
2018-03-26T13:47:39.061Z,50.55
2018-03-26T13:50:07.041Z,56.95
2018-03-26T13:52:38.673Z,50.17
2018-03-26T13:55:06.692Z,43.45
2018-03-26T13:57:36.660Z,48.85
2018-03-26T14:00:05.656Z,48.25
2018-03-26T14:02:33.736Z,40.83
2018-03-26T14:05:02.730Z,49.25
2018-03-26T14:07:30.736Z,41.33
2018-03-26T14:10:15.380Z,44.97
2018-03-26T14:12:57.904Z,43.67
2018-03-26T14:15:38.800Z,45.65
2018-03-26T14:18:07.652Z,42.70
2018-03-26T14:20:38.348Z,48.60
2018-03-26T14:23:08.532Z,50.05
2018-03-26T14:25:38.480Z,42.15
2018-03-26T14:28:24.496Z,44.15
2018-03-26T14:30:58.060Z,42.10
2018-03-26T14:33:29.828Z,44.00
2018-03-26T14:35:59.852Z,45.60
2018-03-26T14:38:29.880Z,43.97
2018-03-26T14:41:01.731Z,50.55
2018-03-26T14:43:29.768Z,43.50
2018-03-26T14:45:57.796Z,48.17
2018-03-26T14:48:26.604Z,42.97
2018-03-26T14:50:54.620Z,42.73
2018-03-26T14:53:22.662Z,37.42
2018-03-26T14:55:54.652Z,39.07
2018-03-26T14:58:41.704Z,42.42
2018-03-26T15:01:17.100Z,42.10
2018-03-26T15:04:00.733Z,40.45
2018-03-26T15:06:32.512Z,37.03
2018-03-26T15:09:01.488Z,38.20
2018-03-26T15:11:52.667Z,36.60
2018-03-26T15:14:22.632Z,38.58
2018-03-26T15:16:51.604Z,40.53
2018-03-26T15:19:27.660Z,35.70
2018-03-26T15:22:09.189Z,41.15
2018-03-26T15:24:37.203Z,41.22
2018-03-26T15:27:09.199Z,39.38
2018-03-26T15:29:42.032Z,37.15
2018-03-26T15:32:21.268Z,41.67
2018-03-26T15:34:51.028Z,39.75
2018-03-26T15:37:21.016Z,39.90
2018-03-26T15:39:49.032Z,35.08
2018-03-26T15:42:21.667Z,38.00
2018-03-26T15:44:50.688Z,36.65
2018-03-26T15:47:20.679Z,43.97
2018-03-26T15:49:48.716Z,43.35
2018-03-26T15:52:17.555Z,39.20
2018-03-26T15:54:50.666Z,41.03
2018-03-26T15:57:18.683Z,43.92
2018-03-26T15:59:48.603Z,43.90
2018-03-26T16:02:24.456Z,46.28
2018-03-26T16:04:53.343Z,42.55
2018-03-26T16:07:29.100Z,45.08
2018-03-26T16:09:57.113Z,47.40
2018-03-26T16:12:31.084Z,41.95
2018-03-26T16:15:24.635Z,44.42
2018-03-26T16:17:53.428Z,49.88
2018-03-26T16:20:21.439Z,46.60
2018-03-26T16:22:53.463Z,54.63
2018-03-26T16:25:21.480Z,48.55
2018-03-26T16:27:51.255Z,47.35
2018-03-26T16:30:23.623Z,47.65
2018-03-26T16:32:53.647Z,45.60
2018-03-26T16:35:25.091Z,42.70
2018-03-26T16:37:56.847Z,44.90
2018-03-26T16:40:26.859Z,42.88
2018-03-26T16:42:54.939Z,44.13
2018-03-26T16:45:39.116Z,42.80
2018-03-26T16:48:09.816Z,42.92
2018-03-26T16:50:43.203Z,47.05
2018-03-26T16:53:12.197Z,45.20
2018-03-26T16:55:41.192Z,47.10
2018-03-26T16:58:13.948Z,44.75
2018-03-26T17:00:44.717Z,49.92
2018-03-26T17:03:13.700Z,47.05
2018-03-26T17:05:41.703Z,46.15
2018-03-26T17:08:11.472Z,42.05
2018-03-26T17:10:40.480Z,48.75
2018-03-26T17:13:16.679Z,47.75
2018-03-26T17:15:45.455Z,50.15
2018-03-26T17:18:13.455Z,48.92
2018-03-26T17:20:44.440Z,46.58
2018-03-26T17:23:18.275Z,50.47
2018-03-26T17:25:57.955Z,46.47
2018-03-26T17:28:29.011Z,51.47
2018-03-26T17:30:57.032Z,52.03
2018-03-26T17:33:26.783Z,51.03
2018-03-26T17:35:56.711Z,53.30
2018-03-26T17:38:44.859Z,50.17
2018-03-26T17:41:42.488Z,55.35
2018-03-26T17:47:21.729Z,60.38
2018-03-26T17:49:59.459Z,55.50
2018-03-26T17:52:33.050Z,57.85
2018-03-26T17:55:01.947Z,51.33
2018-03-26T18:00:27.746Z,52.47
2018-03-26T18:03:20.400Z,55.97
2018-03-26T18:08:45.591Z,56.50
2018-03-26T18:14:08.249Z,59.92
2018-03-26T18:16:36.278Z,59.70
2018-03-26T18:19:23.280Z,54.65
2018-03-26T18:22:12.754Z,58.78
2018-03-26T18:24:40.823Z,58.87
2018-03-26T18:27:08.838Z,59.60
2018-03-26T18:29:58.439Z,57.80
2018-03-26T18:32:29.286Z,64.85
2018-03-26T18:35:08.337Z,65.55
2018-03-26T18:37:40.423Z,64.47
2018-03-26T18:40:11.395Z,63.80
2018-03-26T18:42:43.327Z,65.20
2018-03-26T18:45:13.435Z,108.35
2018-03-26T18:47:44.455Z,115.07
2018-03-26T18:50:12.484Z,97.18
2018-03-26T18:52:43.732Z,85.70
2018-03-26T18:55:12.522Z,78.07
2018-03-26T18:57:42.536Z,63.45
2018-03-26T19:00:28.546Z,90.80
2018-03-26T19:03:01.778Z,66.20
2018-03-26T19:05:38.224Z,76.00
2018-03-26T19:08:17.947Z,67.50
2018-03-26T19:10:56.687Z,59.05
2018-03-26T19:13:24.727Z,64.90
2018-03-26T19:15:54.715Z,64.82
2018-03-26T19:18:36.211Z,68.25
2018-03-26T19:21:11.082Z,69.32
2018-03-26T19:23:41.068Z,68.60
2018-03-26T19:26:33.655Z,64.57
2018-03-26T19:29:18.750Z,67.35
2018-03-26T19:31:53.183Z,66.45
2018-03-26T19:34:31.655Z,69.35
2018-03-26T19:37:05.615Z,65.43
2018-03-26T19:39:36.324Z,72.40
2018-03-26T19:44:58.950Z,65.62
2018-03-26T19:47:35.222Z,65.68
2018-03-26T19:50:05.042Z,69.12
2018-03-26T19:52:44.441Z,67.87
2018-03-26T19:55:15.431Z,68.37
2018-03-26T19:57:48.187Z,73.47
2018-03-26T20:00:21.918Z,72.20
2018-03-26T20:02:55.735Z,70.30
2018-03-26T20:05:30.221Z,76.37
2018-03-26T20:08:14.959Z,76.75
2018-03-26T20:10:54.241Z,68.75
2018-03-26T20:13:28.810Z,67.32
2018-03-26T20:16:03.306Z,67.50
2018-03-26T20:18:36.958Z,79.37
2018-03-26T20:21:11.540Z,67.47
2018-03-26T20:23:46.058Z,76.20
2018-03-26T20:26:37.191Z,76.87
2018-03-26T20:29:12.606Z,72.12
2018-03-26T20:31:40.582Z,79.43
2018-03-26T20:34:12.799Z,71.62
2018-03-26T20:36:44.578Z,73.55
2018-03-26T20:39:16.342Z,75.53
2018-03-26T20:41:44.366Z,84.82
2018-03-26T20:44:16.062Z,79.85
2018-03-26T20:46:44.090Z,89.70
2018-03-26T20:49:30.078Z,81.72
2018-03-26T20:52:02.497Z,79.15
2018-03-26T20:54:32.542Z,89.72
2018-03-26T20:57:07.006Z,83.45
2018-03-26T20:59:35.042Z,91.15
2018-03-26T21:02:03.066Z,78.80
2018-03-26T21:04:33.094Z,85.43
2018-03-26T21:07:04.937Z,92.78
2018-03-26T21:09:36.698Z,80.35
2018-03-26T21:12:05.718Z,91.15
2018-03-26T21:14:34.690Z,86.05
2018-03-26T21:17:02.762Z,79.87
2018-03-26T21:19:34.606Z,74.53
2018-03-26T21:22:07.526Z,85.45
2018-03-26T21:24:35.566Z,82.00
2018-03-26T21:27:03.543Z,83.07
2018-03-26T21:29:31.547Z,77.72
2018-03-26T21:32:00.374Z,77.62
2018-03-26T21:34:30.823Z,80.78
2018-03-26T21:37:12.250Z,84.53
2018-03-26T21:39:44.590Z,84.22
2018-03-26T21:42:17.608Z,85.82
2018-03-26T21:47:44.030Z,82.95
2018-03-26T21:50:16.702Z,74.32
2018-03-26T21:52:49.578Z,75.43
2018-03-26T21:55:19.638Z,86.07
2018-03-26T21:57:48.416Z,75.15
2018-03-26T22:00:26.770Z,71.68
2018-03-26T22:03:17.862Z,87.80
2018-03-26T22:05:45.930Z,72.70
2018-03-26T22:08:15.914Z,78.28
2018-03-26T22:10:51.354Z,75.85
2018-03-26T22:13:21.069Z,76.57
2018-03-26T22:15:55.722Z,71.40
2018-03-26T22:18:23.726Z,66.10
2018-03-26T22:20:55.706Z,65.55
2018-03-26T22:23:37.825Z,60.60
2018-03-26T22:26:11.202Z,63.75
2018-03-26T22:28:40.214Z,68.90
2018-03-26T22:31:11.977Z,71.55
2018-03-26T22:33:46.629Z,80.10
2018-03-26T22:36:14.785Z,73.62
2018-03-26T22:38:42.798Z,69.43
2018-03-26T22:41:11.826Z,68.45
2018-03-26T22:43:42.854Z,65.90
2018-03-26T22:46:22.786Z,69.20
2018-03-26T22:48:58.934Z,72.55
2018-03-26T22:51:28.685Z,79.03
2018-03-26T22:53:58.606Z,84.62
2018-03-26T22:56:26.613Z,78.22
2018-03-26T22:58:58.285Z,77.45
2018-03-26T23:01:28.225Z,84.32
2018-03-26T23:03:59.777Z,81.43
2018-03-26T23:06:42.849Z,87.22
2018-03-26T23:09:21.901Z,78.25
2018-03-26T23:11:54.026Z,70.60
2018-03-26T23:14:30.373Z,74.37
2018-03-26T23:17:04.224Z,70.65
2018-03-26T23:19:32.209Z,70.05
2018-03-26T23:22:00.242Z,73.05
2018-03-26T23:24:33.486Z,80.50
2018-03-26T23:27:02.493Z,91.53
2018-03-26T23:29:34.052Z,81.63
2018-03-26T23:32:05.614Z,78.32
2018-03-26T23:34:33.617Z,89.37
2018-03-26T23:37:06.794Z,84.93
2018-03-26T23:39:35.749Z,89.78
2018-03-26T23:42:03.777Z,89.20
2018-03-26T23:44:34.857Z,86.43
2018-03-26T23:47:03.849Z,77.60
2018-03-26T23:49:37.349Z,83.87
2018-03-26T23:52:10.945Z,79.95
2018-03-26T23:54:42.694Z,77.85
2018-03-26T23:57:11.685Z,79.37
2018-03-26T23:59:40.710Z,85.78
